sensor_id;sensor_type;location;lat;lon;timestamp;P1;durP1;ratioP1;P2;durP2;ratioP2
66741;SDS011;53654;54.152;19.432;2023-08-07T00:00:06;1.70;;;1.40;;
66741;SDS011;53654;54.152;19.432;2023-08-07T00:02:57;1.70;;;1.60;;
66741;SDS011;53654;54.152;19.432;2023-08-07T00:05:26;2.30;;;1.80;;
66741;SDS011;53654;54.152;19.432;2023-08-07T00:07:54;1.90;;;1.50;;
66741;SDS011;53654;54.152;19.432;2023-08-07T00:10:22;2.20;;;1.60;;
66741;SDS011;53654;54.152;19.432;2023-08-07T00:12:52;2.20;;;1.60;;
66741;SDS011;53654;54.152;19.432;2023-08-07T00:15:21;1.90;;;1.70;;
66741;SDS011;53654;54.152;19.432;2023-08-07T00:17:49;2.30;;;1.60;;
66741;SDS011;53654;54.152;19.432;2023-08-07T00:20:17;2.80;;;1.90;;
66741;SDS011;53654;54.152;19.432;2023-08-07T00:22:45;1.90;;;1.80;;
66741;SDS011;53654;54.152;19.432;2023-08-07T00:25:13;2.20;;;1.50;;
66741;SDS011;53654;54.152;19.432;2023-08-07T00:27:41;2.00;;;1.80;;
66741;SDS011;53654;54.152;19.432;2023-08-07T00:30:10;2.00;;;1.80;;
66741;SDS011;53654;54.152;19.432;2023-08-07T00:32:38;1.90;;;1.80;;
66741;SDS011;53654;54.152;19.432;2023-08-07T00:35:07;1.60;;;1.50;;
66741;SDS011;53654;54.152;19.432;2023-08-07T00:37:38;2.10;;;1.60;;
66741;SDS011;53654;54.152;19.432;2023-08-07T00:40:06;1.70;;;1.40;;
66741;SDS011;53654;54.152;19.432;2023-08-07T00:42:35;2.40;;;1.20;;
66741;SDS011;53654;54.152;19.432;2023-08-07T00:45:04;1.40;;;1.20;;
66741;SDS011;53654;54.152;19.432;2023-08-07T00:47:33;1.60;;;0.80;;
66741;SDS011;53654;54.152;19.432;2023-08-07T00:50:02;2.10;;;0.90;;
66741;SDS011;53654;54.152;19.432;2023-08-07T00:52:32;1.10;;;0.80;;
66741;SDS011;53654;54.152;19.432;2023-08-07T00:55:00;1.90;;;0.70;;
66741;SDS011;53654;54.152;19.432;2023-08-07T00:57:29;1.50;;;0.60;;
66741;SDS011;53654;54.152;19.432;2023-08-07T00:59:58;2.50;;;0.60;;
66741;SDS011;53654;54.152;19.432;2023-08-07T01:02:27;1.40;;;0.60;;
66741;SDS011;53654;54.152;19.432;2023-08-07T01:04:56;1.30;;;0.60;;
66741;SDS011;53654;54.152;19.432;2023-08-07T01:07:24;1.30;;;0.50;;
66741;SDS011;53654;54.152;19.432;2023-08-07T01:09:52;2.70;;;0.70;;
66741;SDS011;53654;54.152;19.432;2023-08-07T01:12:28;2.00;;;0.80;;
66741;SDS011;53654;54.152;19.432;2023-08-07T01:15:00;2.00;;;0.80;;
66741;SDS011;53654;54.152;19.432;2023-08-07T01:17:32;0.80;;;0.40;;
66741;SDS011;53654;54.152;19.432;2023-08-07T01:20:02;2.10;;;0.60;;
66741;SDS011;53654;54.152;19.432;2023-08-07T01:22:31;2.40;;;0.50;;
66741;SDS011;53654;54.152;19.432;2023-08-07T01:24:59;1.50;;;0.60;;
66741;SDS011;53654;54.152;19.432;2023-08-07T01:27:37;1.60;;;0.50;;
66741;SDS011;53654;54.152;19.432;2023-08-07T01:35:33;1.60;;;0.60;;
66741;SDS011;53654;54.152;19.432;2023-08-07T01:38:04;1.90;;;0.40;;
66741;SDS011;53654;54.152;19.432;2023-08-07T01:40:33;1.50;;;0.50;;
66741;SDS011;53654;54.152;19.432;2023-08-07T01:43:05;1.60;;;0.40;;
66741;SDS011;53654;54.152;19.432;2023-08-07T01:45:35;1.30;;;0.50;;
66741;SDS011;53654;54.152;19.432;2023-08-07T01:48:03;3.60;;;0.60;;
66741;SDS011;53654;54.152;19.432;2023-08-07T01:50:32;1.70;;;0.60;;
66741;SDS011;53654;54.152;19.432;2023-08-07T01:53:00;1.90;;;0.50;;
66741;SDS011;53654;54.152;19.432;2023-08-07T01:55:30;1.70;;;0.40;;
66741;SDS011;53654;54.152;19.432;2023-08-07T01:57:59;2.20;;;0.60;;
66741;SDS011;53654;54.152;19.432;2023-08-07T02:00:27;2.70;;;0.60;;
66741;SDS011;53654;54.152;19.432;2023-08-07T02:02:55;3.10;;;0.60;;
66741;SDS011;53654;54.152;19.432;2023-08-07T02:05:23;3.20;;;0.70;;
66741;SDS011;53654;54.152;19.432;2023-08-07T02:07:52;1.30;;;0.50;;
66741;SDS011;53654;54.152;19.432;2023-08-07T02:10:20;2.90;;;0.50;;
66741;SDS011;53654;54.152;19.432;2023-08-07T02:12:49;1.00;;;0.70;;
66741;SDS011;53654;54.152;19.432;2023-08-07T02:15:17;2.10;;;0.70;;
66741;SDS011;53654;54.152;19.432;2023-08-07T02:17:50;0.90;;;0.60;;
66741;SDS011;53654;54.152;19.432;2023-08-07T02:20:18;1.70;;;0.70;;
66741;SDS011;53654;54.152;19.432;2023-08-07T02:22:47;2.50;;;0.90;;
66741;SDS011;53654;54.152;19.432;2023-08-07T02:25:15;0.60;;;0.50;;
66741;SDS011;53654;54.152;19.432;2023-08-07T02:27:44;2.10;;;0.60;;
66741;SDS011;53654;54.152;19.432;2023-08-07T02:30:12;2.10;;;1.20;;
66741;SDS011;53654;54.152;19.432;2023-08-07T02:32:40;2.00;;;0.70;;
66741;SDS011;53654;54.152;19.432;2023-08-07T02:35:12;2.10;;;0.60;;
66741;SDS011;53654;54.152;19.432;2023-08-07T02:37:40;1.30;;;0.50;;
66741;SDS011;53654;54.152;19.432;2023-08-07T02:40:08;1.10;;;0.40;;
66741;SDS011;53654;54.152;19.432;2023-08-07T02:42:37;2.20;;;0.40;;
66741;SDS011;53654;54.152;19.432;2023-08-07T02:45:05;0.70;;;0.30;;
66741;SDS011;53654;54.152;19.432;2023-08-07T02:47:34;1.50;;;0.40;;
66741;SDS011;53654;54.152;19.432;2023-08-07T02:50:02;0.70;;;0.40;;
66741;SDS011;53654;54.152;19.432;2023-08-07T02:52:30;2.00;;;0.40;;
66741;SDS011;53654;54.152;19.432;2023-08-07T02:54:58;1.30;;;0.40;;
66741;SDS011;53654;54.152;19.432;2023-08-07T02:57:26;2.20;;;0.40;;
66741;SDS011;53654;54.152;19.432;2023-08-07T02:59:55;1.90;;;0.40;;
66741;SDS011;53654;54.152;19.432;2023-08-07T03:02:23;1.50;;;0.40;;
66741;SDS011;53654;54.152;19.432;2023-08-07T03:04:51;0.60;;;0.30;;
66741;SDS011;53654;54.152;19.432;2023-08-07T03:07:19;1.80;;;0.50;;
66741;SDS011;53654;54.152;19.432;2023-08-07T03:09:48;1.30;;;0.40;;
66741;SDS011;53654;54.152;19.432;2023-08-07T03:12:16;1.90;;;0.40;;
66741;SDS011;53654;54.152;19.432;2023-08-07T03:14:44;0.40;;;0.40;;
66741;SDS011;53654;54.152;19.432;2023-08-07T03:17:12;1.20;;;0.50;;
66741;SDS011;53654;54.152;19.432;2023-08-07T03:19:41;1.70;;;0.30;;
66741;SDS011;53654;54.152;19.432;2023-08-07T03:22:12;0.40;;;0.40;;
66741;SDS011;53654;54.152;19.432;2023-08-07T03:24:40;0.40;;;0.40;;
66741;SDS011;53654;54.152;19.432;2023-08-07T03:27:08;0.90;;;0.40;;
66741;SDS011;53654;54.152;19.432;2023-08-07T03:29:37;0.90;;;0.40;;
66741;SDS011;53654;54.152;19.432;2023-08-07T03:32:05;0.70;;;0.40;;
66741;SDS011;53654;54.152;19.432;2023-08-07T03:34:35;0.40;;;0.30;;
66741;SDS011;53654;54.152;19.432;2023-08-07T03:37:03;0.50;;;0.30;;
66741;SDS011;53654;54.152;19.432;2023-08-07T03:39:31;2.00;;;0.60;;
66741;SDS011;53654;54.152;19.432;2023-08-07T03:41:59;2.40;;;0.50;;
66741;SDS011;53654;54.152;19.432;2023-08-07T03:44:29;1.40;;;0.30;;
66741;SDS011;53654;54.152;19.432;2023-08-07T03:46:57;1.00;;;0.50;;
66741;SDS011;53654;54.152;19.432;2023-08-07T03:49:25;0.40;;;0.40;;
66741;SDS011;53654;54.152;19.432;2023-08-07T03:51:54;1.20;;;0.50;;
66741;SDS011;53654;54.152;19.432;2023-08-07T03:54:22;0.70;;;0.40;;
66741;SDS011;53654;54.152;19.432;2023-08-07T03:56:50;0.40;;;0.40;;
66741;SDS011;53654;54.152;19.432;2023-08-07T03:59:19;1.10;;;0.50;;
66741;SDS011;53654;54.152;19.432;2023-08-07T04:01:47;1.10;;;0.60;;
66741;SDS011;53654;54.152;19.432;2023-08-07T04:04:15;1.10;;;0.50;;
66741;SDS011;53654;54.152;19.432;2023-08-07T04:06:44;1.80;;;0.70;;
66741;SDS011;53654;54.152;19.432;2023-08-07T04:09:12;0.70;;;0.50;;
66741;SDS011;53654;54.152;19.432;2023-08-07T04:11:40;0.70;;;0.70;;
66741;SDS011;53654;54.152;19.432;2023-08-07T04:14:08;1.10;;;0.70;;
66741;SDS011;53654;54.152;19.432;2023-08-07T04:16:37;0.70;;;0.70;;
66741;SDS011;53654;54.152;19.432;2023-08-07T04:19:05;2.00;;;0.60;;
66741;SDS011;53654;54.152;19.432;2023-08-07T04:21:35;1.20;;;0.60;;
66741;SDS011;53654;54.152;19.432;2023-08-07T04:24:03;1.10;;;0.80;;
66741;SDS011;53654;54.152;19.432;2023-08-07T04:26:38;0.70;;;0.70;;
66741;SDS011;53654;54.152;19.432;2023-08-07T04:29:06;2.00;;;0.90;;
66741;SDS011;53654;54.152;19.432;2023-08-07T04:31:35;0.90;;;0.90;;
66741;SDS011;53654;54.152;19.432;2023-08-07T04:34:03;1.20;;;0.90;;
66741;SDS011;53654;54.152;19.432;2023-08-07T04:36:32;1.40;;;0.70;;
66741;SDS011;53654;54.152;19.432;2023-08-07T04:39:01;1.20;;;1.10;;
66741;SDS011;53654;54.152;19.432;2023-08-07T04:41:29;1.90;;;1.00;;
66741;SDS011;53654;54.152;19.432;2023-08-07T04:43:57;1.30;;;0.90;;
66741;SDS011;53654;54.152;19.432;2023-08-07T04:46:25;0.90;;;0.90;;
66741;SDS011;53654;54.152;19.432;2023-08-07T04:48:53;1.00;;;1.00;;
66741;SDS011;53654;54.152;19.432;2023-08-07T04:51:22;1.40;;;0.90;;
66741;SDS011;53654;54.152;19.432;2023-08-07T04:53:50;1.60;;;1.50;;
66741;SDS011;53654;54.152;19.432;2023-08-07T04:56:19;1.40;;;1.10;;
66741;SDS011;53654;54.152;19.432;2023-08-07T04:58:47;1.10;;;1.00;;
66741;SDS011;53654;54.152;19.432;2023-08-07T05:01:15;2.00;;;0.80;;
66741;SDS011;53654;54.152;19.432;2023-08-07T05:03:43;1.10;;;0.90;;
66741;SDS011;53654;54.152;19.432;2023-08-07T05:06:11;1.50;;;0.90;;
66741;SDS011;53654;54.152;19.432;2023-08-07T05:08:39;1.10;;;0.90;;
66741;SDS011;53654;54.152;19.432;2023-08-07T05:11:08;0.90;;;0.80;;
66741;SDS011;53654;54.152;19.432;2023-08-07T05:13:36;0.90;;;0.90;;
66741;SDS011;53654;54.152;19.432;2023-08-07T05:16:04;1.10;;;0.80;;
66741;SDS011;53654;54.152;19.432;2023-08-07T05:18:32;1.00;;;0.90;;
66741;SDS011;53654;54.152;19.432;2023-08-07T05:21:00;0.80;;;0.80;;
66741;SDS011;53654;54.152;19.432;2023-08-07T05:23:28;1.10;;;0.80;;
66741;SDS011;53654;54.152;19.432;2023-08-07T05:25:56;1.30;;;0.70;;
66741;SDS011;53654;54.152;19.432;2023-08-07T05:28:24;1.50;;;0.70;;
66741;SDS011;53654;54.152;19.432;2023-08-07T05:30:52;1.30;;;0.70;;
66741;SDS011;53654;54.152;19.432;2023-08-07T05:33:21;1.50;;;0.80;;
66741;SDS011;53654;54.152;19.432;2023-08-07T05:35:49;1.00;;;0.70;;
66741;SDS011;53654;54.152;19.432;2023-08-07T05:38:18;0.70;;;0.70;;
66741;SDS011;53654;54.152;19.432;2023-08-07T05:40:46;1.00;;;0.70;;
66741;SDS011;53654;54.152;19.432;2023-08-07T05:43:15;0.90;;;0.90;;
66741;SDS011;53654;54.152;19.432;2023-08-07T05:45:44;1.80;;;0.80;;
66741;SDS011;53654;54.152;19.432;2023-08-07T05:48:14;0.70;;;0.70;;
66741;SDS011;53654;54.152;19.432;2023-08-07T05:50:43;1.00;;;0.70;;
66741;SDS011;53654;54.152;19.432;2023-08-07T05:53:11;0.60;;;0.60;;
66741;SDS011;53654;54.152;19.432;2023-08-07T05:55:40;0.90;;;0.70;;
66741;SDS011;53654;54.152;19.432;2023-08-07T05:58:10;1.50;;;0.70;;
66741;SDS011;53654;54.152;19.432;2023-08-07T06:00:38;1.00;;;0.70;;
66741;SDS011;53654;54.152;19.432;2023-08-07T06:03:06;1.60;;;0.70;;
66741;SDS011;53654;54.152;19.432;2023-08-07T06:05:35;0.90;;;0.60;;
66741;SDS011;53654;54.152;19.432;2023-08-07T06:08:04;0.70;;;0.70;;
66741;SDS011;53654;54.152;19.432;2023-08-07T06:10:32;0.70;;;0.60;;
66741;SDS011;53654;54.152;19.432;2023-08-07T06:13:00;0.60;;;0.60;;
66741;SDS011;53654;54.152;19.432;2023-08-07T06:15:29;1.10;;;0.70;;
66741;SDS011;53654;54.152;19.432;2023-08-07T06:17:57;0.90;;;0.70;;
66741;SDS011;53654;54.152;19.432;2023-08-07T06:20:26;0.70;;;0.70;;
66741;SDS011;53654;54.152;19.432;2023-08-07T06:22:54;0.70;;;0.70;;
66741;SDS011;53654;54.152;19.432;2023-08-07T06:25:22;1.40;;;0.60;;
66741;SDS011;53654;54.152;19.432;2023-08-07T06:27:50;1.10;;;0.70;;
66741;SDS011;53654;54.152;19.432;2023-08-07T06:30:19;1.60;;;0.70;;
66741;SDS011;53654;54.152;19.432;2023-08-07T06:32:47;0.80;;;0.60;;
66741;SDS011;53654;54.152;19.432;2023-08-07T06:35:16;0.70;;;0.70;;
66741;SDS011;53654;54.152;19.432;2023-08-07T06:37:44;1.20;;;0.70;;
66741;SDS011;53654;54.152;19.432;2023-08-07T06:40:12;0.70;;;0.70;;
66741;SDS011;53654;54.152;19.432;2023-08-07T06:42:40;0.80;;;0.80;;
66741;SDS011;53654;54.152;19.432;2023-08-07T06:45:09;2.00;;;0.70;;
66741;SDS011;53654;54.152;19.432;2023-08-07T06:47:37;0.80;;;0.80;;
66741;SDS011;53654;54.152;19.432;2023-08-07T06:50:05;1.10;;;0.70;;
66741;SDS011;53654;54.152;19.432;2023-08-07T06:52:34;1.10;;;0.70;;
66741;SDS011;53654;54.152;19.432;2023-08-07T06:55:02;0.90;;;0.70;;
66741;SDS011;53654;54.152;19.432;2023-08-07T06:57:30;0.70;;;0.70;;
66741;SDS011;53654;54.152;19.432;2023-08-07T06:59:58;1.40;;;0.90;;
66741;SDS011;53654;54.152;19.432;2023-08-07T07:02:27;0.80;;;0.60;;
66741;SDS011;53654;54.152;19.432;2023-08-07T07:04:55;1.30;;;0.80;;
66741;SDS011;53654;54.152;19.432;2023-08-07T07:07:23;0.90;;;0.80;;
66741;SDS011;53654;54.152;19.432;2023-08-07T07:09:51;0.80;;;0.80;;
66741;SDS011;53654;54.152;19.432;2023-08-07T07:12:19;1.70;;;0.70;;
66741;SDS011;53654;54.152;19.432;2023-08-07T07:14:48;1.10;;;0.70;;
66741;SDS011;53654;54.152;19.432;2023-08-07T07:17:16;1.40;;;0.70;;
66741;SDS011;53654;54.152;19.432;2023-08-07T07:19:44;0.90;;;0.70;;
66741;SDS011;53654;54.152;19.432;2023-08-07T07:22:12;1.10;;;0.70;;
66741;SDS011;53654;54.152;19.432;2023-08-07T07:24:40;0.80;;;0.70;;
66741;SDS011;53654;54.152;19.432;2023-08-07T07:27:08;0.70;;;0.70;;
66741;SDS011;53654;54.152;19.432;2023-08-07T07:29:36;0.60;;;0.60;;
66741;SDS011;53654;54.152;19.432;2023-08-07T07:32:05;1.60;;;0.70;;
66741;SDS011;53654;54.152;19.432;2023-08-07T07:34:33;0.80;;;0.80;;
66741;SDS011;53654;54.152;19.432;2023-08-07T07:37:02;1.10;;;0.70;;
66741;SDS011;53654;54.152;19.432;2023-08-07T07:39:30;0.70;;;0.70;;
66741;SDS011;53654;54.152;19.432;2023-08-07T07:41:58;0.70;;;0.70;;
66741;SDS011;53654;54.152;19.432;2023-08-07T07:44:28;1.10;;;0.80;;
66741;SDS011;53654;54.152;19.432;2023-08-07T07:46:57;1.40;;;0.80;;
66741;SDS011;53654;54.152;19.432;2023-08-07T07:49:25;0.70;;;0.70;;
66741;SDS011;53654;54.152;19.432;2023-08-07T07:51:53;0.70;;;0.70;;
66741;SDS011;53654;54.152;19.432;2023-08-07T07:54:23;0.80;;;0.80;;
66741;SDS011;53654;54.152;19.432;2023-08-07T07:56:52;0.70;;;0.70;;
66741;SDS011;53654;54.152;19.432;2023-08-07T07:59:20;0.60;;;0.60;;
66741;SDS011;53654;54.152;19.432;2023-08-07T08:01:48;0.80;;;0.80;;
66741;SDS011;53654;54.152;19.432;2023-08-07T08:04:16;0.70;;;0.70;;
66741;SDS011;53654;54.152;19.432;2023-08-07T08:06:45;0.90;;;0.80;;
66741;SDS011;53654;54.152;19.432;2023-08-07T08:09:16;0.90;;;0.70;;
66741;SDS011;53654;54.152;19.432;2023-08-07T08:11:44;0.90;;;0.70;;
66741;SDS011;53654;54.152;19.432;2023-08-07T08:14:12;0.70;;;0.70;;
66741;SDS011;53654;54.152;19.432;2023-08-07T08:16:40;0.80;;;0.80;;
66741;SDS011;53654;54.152;19.432;2023-08-07T08:19:08;0.90;;;0.80;;
66741;SDS011;53654;54.152;19.432;2023-08-07T08:21:37;0.90;;;0.90;;
66741;SDS011;53654;54.152;19.432;2023-08-07T08:24:08;0.70;;;0.70;;
66741;SDS011;53654;54.152;19.432;2023-08-07T08:26:36;1.40;;;0.70;;
66741;SDS011;53654;54.152;19.432;2023-08-07T08:29:08;0.60;;;0.60;;
66741;SDS011;53654;54.152;19.432;2023-08-07T08:31:36;1.00;;;0.70;;
66741;SDS011;53654;54.152;19.432;2023-08-07T08:34:04;0.90;;;0.70;;
66741;SDS011;53654;54.152;19.432;2023-08-07T08:36:32;0.70;;;0.70;;
66741;SDS011;53654;54.152;19.432;2023-08-07T08:39:00;1.50;;;0.80;;
66741;SDS011;53654;54.152;19.432;2023-08-07T08:41:30;1.00;;;0.90;;
66741;SDS011;53654;54.152;19.432;2023-08-07T08:43:59;0.90;;;0.90;;
66741;SDS011;53654;54.152;19.432;2023-08-07T08:46:29;2.30;;;1.00;;
66741;SDS011;53654;54.152;19.432;2023-08-07T08:48:59;1.10;;;0.70;;
66741;SDS011;53654;54.152;19.432;2023-08-07T08:51:29;0.70;;;0.70;;
66741;SDS011;53654;54.152;19.432;2023-08-07T08:53:59;1.60;;;0.90;;
66741;SDS011;53654;54.152;19.432;2023-08-07T08:56:29;0.90;;;0.70;;
66741;SDS011;53654;54.152;19.432;2023-08-07T08:58:58;1.10;;;1.10;;
66741;SDS011;53654;54.152;19.432;2023-08-07T09:01:27;1.60;;;0.80;;
66741;SDS011;53654;54.152;19.432;2023-08-07T09:03:57;1.50;;;1.00;;
66741;SDS011;53654;54.152;19.432;2023-08-07T09:06:27;1.60;;;1.00;;
66741;SDS011;53654;54.152;19.432;2023-08-07T09:08:59;1.30;;;1.00;;
66741;SDS011;53654;54.152;19.432;2023-08-07T09:11:29;1.30;;;1.20;;
66741;SDS011;53654;54.152;19.432;2023-08-07T09:13:59;1.70;;;1.20;;
66741;SDS011;53654;54.152;19.432;2023-08-07T09:16:29;1.10;;;1.00;;
66741;SDS011;53654;54.152;19.432;2023-08-07T09:18:58;1.30;;;1.20;;
66741;SDS011;53654;54.152;19.432;2023-08-07T09:21:31;1.10;;;1.00;;
66741;SDS011;53654;54.152;19.432;2023-08-07T09:24:00;1.50;;;1.20;;
66741;SDS011;53654;54.152;19.432;2023-08-07T09:26:28;1.90;;;1.20;;
66741;SDS011;53654;54.152;19.432;2023-08-07T09:28:57;1.90;;;1.20;;
66741;SDS011;53654;54.152;19.432;2023-08-07T09:31:27;2.40;;;1.30;;
66741;SDS011;53654;54.152;19.432;2023-08-07T09:33:55;1.10;;;1.00;;
66741;SDS011;53654;54.152;19.432;2023-08-07T09:36:31;1.30;;;1.20;;
66741;SDS011;53654;54.152;19.432;2023-08-07T09:39:01;1.60;;;1.20;;
66741;SDS011;53654;54.152;19.432;2023-08-07T09:41:30;1.90;;;1.30;;
66741;SDS011;53654;54.152;19.432;2023-08-07T09:43:59;1.40;;;1.30;;
66741;SDS011;53654;54.152;19.432;2023-08-07T09:46:42;2.20;;;1.10;;
66741;SDS011;53654;54.152;19.432;2023-08-07T09:49:12;1.70;;;1.20;;
66741;SDS011;53654;54.152;19.432;2023-08-07T09:51:45;1.10;;;1.00;;
66741;SDS011;53654;54.152;19.432;2023-08-07T09:54:15;1.40;;;1.30;;
66741;SDS011;53654;54.152;19.432;2023-08-07T09:56:46;1.50;;;1.30;;
66741;SDS011;53654;54.152;19.432;2023-08-07T09:59:15;1.40;;;1.20;;
66741;SDS011;53654;54.152;19.432;2023-08-07T10:01:44;1.70;;;1.10;;
66741;SDS011;53654;54.152;19.432;2023-08-07T10:04:13;1.20;;;1.10;;
66741;SDS011;53654;54.152;19.432;2023-08-07T10:06:43;1.40;;;1.20;;
66741;SDS011;53654;54.152;19.432;2023-08-07T10:09:16;1.90;;;1.30;;
66741;SDS011;53654;54.152;19.432;2023-08-07T10:11:44;1.20;;;1.10;;
66741;SDS011;53654;54.152;19.432;2023-08-07T10:14:13;1.70;;;1.20;;
66741;SDS011;53654;54.152;19.432;2023-08-07T10:16:42;1.30;;;1.20;;
66741;SDS011;53654;54.152;19.432;2023-08-07T10:19:11;1.50;;;1.10;;
66741;SDS011;53654;54.152;19.432;2023-08-07T10:21:40;1.20;;;1.00;;
66741;SDS011;53654;54.152;19.432;2023-08-07T10:24:10;1.70;;;1.10;;
66741;SDS011;53654;54.152;19.432;2023-08-07T10:26:42;1.80;;;1.20;;
66741;SDS011;53654;54.152;19.432;2023-08-07T10:29:14;1.20;;;1.10;;
66741;SDS011;53654;54.152;19.432;2023-08-07T10:31:46;1.70;;;1.20;;
66741;SDS011;53654;54.152;19.432;2023-08-07T10:34:15;2.10;;;1.60;;
66741;SDS011;53654;54.152;19.432;2023-08-07T10:36:44;1.50;;;1.40;;
66741;SDS011;53654;54.152;19.432;2023-08-07T10:39:13;2.00;;;1.30;;
66741;SDS011;53654;54.152;19.432;2023-08-07T10:41:47;1.40;;;1.30;;
66741;SDS011;53654;54.152;19.432;2023-08-07T10:44:21;1.30;;;1.20;;
66741;SDS011;53654;54.152;19.432;2023-08-07T10:46:52;2.00;;;1.40;;
66741;SDS011;53654;54.152;19.432;2023-08-07T10:52:12;1.40;;;1.30;;
66741;SDS011;53654;54.152;19.432;2023-08-07T10:54:48;1.80;;;1.40;;
66741;SDS011;53654;54.152;19.432;2023-08-07T10:57:18;1.80;;;1.10;;
66741;SDS011;53654;54.152;19.432;2023-08-07T11:02:24;1.70;;;1.40;;
66741;SDS011;53654;54.152;19.432;2023-08-07T11:04:56;2.60;;;1.40;;
66741;SDS011;53654;54.152;19.432;2023-08-07T11:07:26;1.40;;;1.20;;
66741;SDS011;53654;54.152;19.432;2023-08-07T11:09:56;1.60;;;1.20;;
66741;SDS011;53654;54.152;19.432;2023-08-07T11:12:26;2.30;;;1.50;;
66741;SDS011;53654;54.152;19.432;2023-08-07T11:14:56;2.30;;;1.40;;
66741;SDS011;53654;54.152;19.432;2023-08-07T11:17:25;1.60;;;1.30;;
66741;SDS011;53654;54.152;19.432;2023-08-07T11:19:55;1.80;;;1.40;;
66741;SDS011;53654;54.152;19.432;2023-08-07T11:22:26;3.00;;;1.30;;
66741;SDS011;53654;54.152;19.432;2023-08-07T11:24:57;2.10;;;1.40;;
66741;SDS011;53654;54.152;19.432;2023-08-07T11:27:25;2.20;;;1.70;;
66741;SDS011;53654;54.152;19.432;2023-08-07T11:29:54;1.60;;;1.50;;
66741;SDS011;53654;54.152;19.432;2023-08-07T11:32:22;2.40;;;1.50;;
66741;SDS011;53654;54.152;19.432;2023-08-07T11:34:50;2.30;;;1.40;;
66741;SDS011;53654;54.152;19.432;2023-08-07T11:37:19;2.40;;;1.30;;
66741;SDS011;53654;54.152;19.432;2023-08-07T11:39:48;1.40;;;1.30;;
66741;SDS011;53654;54.152;19.432;2023-08-07T11:42:16;3.20;;;1.60;;
66741;SDS011;53654;54.152;19.432;2023-08-07T11:44:44;3.10;;;2.00;;
66741;SDS011;53654;54.152;19.432;2023-08-07T11:47:13;2.80;;;1.70;;
66741;SDS011;53654;54.152;19.432;2023-08-07T11:49:44;2.80;;;1.70;;
66741;SDS011;53654;54.152;19.432;2023-08-07T11:52:13;1.90;;;1.30;;
66741;SDS011;53654;54.152;19.432;2023-08-07T11:54:42;1.60;;;1.40;;
66741;SDS011;53654;54.152;19.432;2023-08-07T11:57:17;2.30;;;1.60;;
66741;SDS011;53654;54.152;19.432;2023-08-07T11:59:51;2.20;;;1.50;;
66741;SDS011;53654;54.152;19.432;2023-08-07T12:02:26;2.80;;;1.40;;
66741;SDS011;53654;54.152;19.432;2023-08-07T12:04:57;2.40;;;1.70;;
66741;SDS011;53654;54.152;19.432;2023-08-07T12:07:27;1.60;;;1.50;;
66741;SDS011;53654;54.152;19.432;2023-08-07T12:10:02;3.20;;;1.80;;
66741;SDS011;53654;54.152;19.432;2023-08-07T12:12:37;2.60;;;1.60;;
66741;SDS011;53654;54.152;19.432;2023-08-07T12:15:06;1.60;;;1.50;;
66741;SDS011;53654;54.152;19.432;2023-08-07T12:17:36;3.60;;;1.60;;
66741;SDS011;53654;54.152;19.432;2023-08-07T12:20:05;2.00;;;1.50;;
66741;SDS011;53654;54.152;19.432;2023-08-07T12:22:35;1.50;;;1.40;;
66741;SDS011;53654;54.152;19.432;2023-08-07T12:25:04;1.70;;;1.60;;
66741;SDS011;53654;54.152;19.432;2023-08-07T12:27:33;2.20;;;1.50;;
66741;SDS011;53654;54.152;19.432;2023-08-07T12:30:02;2.80;;;1.50;;
66741;SDS011;53654;54.152;19.432;2023-08-07T12:32:30;1.70;;;1.50;;
66741;SDS011;53654;54.152;19.432;2023-08-07T12:34:58;2.40;;;1.60;;
66741;SDS011;53654;54.152;19.432;2023-08-07T12:37:30;1.70;;;1.50;;
66741;SDS011;53654;54.152;19.432;2023-08-07T12:39:58;1.60;;;1.50;;
66741;SDS011;53654;54.152;19.432;2023-08-07T12:42:46;2.00;;;1.70;;
66741;SDS011;53654;54.152;19.432;2023-08-07T12:45:16;1.40;;;1.30;;
66741;SDS011;53654;54.152;19.432;2023-08-07T12:48:06;2.40;;;1.70;;
66741;SDS011;53654;54.152;19.432;2023-08-07T12:50:35;1.90;;;1.70;;
66741;SDS011;53654;54.152;19.432;2023-08-07T12:53:05;1.50;;;1.40;;
66741;SDS011;53654;54.152;19.432;2023-08-07T12:55:34;1.80;;;1.70;;
66741;SDS011;53654;54.152;19.432;2023-08-07T12:58:03;1.70;;;1.60;;
66741;SDS011;53654;54.152;19.432;2023-08-07T13:00:32;2.10;;;1.50;;
66741;SDS011;53654;54.152;19.432;2023-08-07T13:03:00;2.90;;;1.60;;
66741;SDS011;53654;54.152;19.432;2023-08-07T13:05:32;3.20;;;1.50;;
66741;SDS011;53654;54.152;19.432;2023-08-07T13:08:02;1.60;;;1.50;;
66741;SDS011;53654;54.152;19.432;2023-08-07T13:10:34;1.60;;;1.50;;
66741;SDS011;53654;54.152;19.432;2023-08-07T13:13:02;1.90;;;1.60;;
66741;SDS011;53654;54.152;19.432;2023-08-07T13:15:32;1.70;;;1.60;;
66741;SDS011;53654;54.152;19.432;2023-08-07T13:18:00;1.80;;;1.60;;
66741;SDS011;53654;54.152;19.432;2023-08-07T13:20:29;2.20;;;1.80;;
66741;SDS011;53654;54.152;19.432;2023-08-07T13:23:01;2.40;;;1.90;;
66741;SDS011;53654;54.152;19.432;2023-08-07T13:25:30;3.00;;;2.00;;
66741;SDS011;53654;54.152;19.432;2023-08-07T13:27:58;2.90;;;1.70;;
66741;SDS011;53654;54.152;19.432;2023-08-07T13:30:26;2.40;;;2.00;;
66741;SDS011;53654;54.152;19.432;2023-08-07T13:33:00;2.50;;;2.00;;
66741;SDS011;53654;54.152;19.432;2023-08-07T13:35:28;2.00;;;1.80;;
66741;SDS011;53654;54.152;19.432;2023-08-07T13:37:57;2.00;;;1.80;;
66741;SDS011;53654;54.152;19.432;2023-08-07T13:40:26;1.70;;;1.60;;
66741;SDS011;53654;54.152;19.432;2023-08-07T13:42:54;3.20;;;1.70;;
66741;SDS011;53654;54.152;19.432;2023-08-07T13:45:23;2.80;;;1.60;;
66741;SDS011;53654;54.152;19.432;2023-08-07T13:47:51;2.80;;;1.80;;
66741;SDS011;53654;54.152;19.432;2023-08-07T13:50:19;1.70;;;1.50;;
66741;SDS011;53654;54.152;19.432;2023-08-07T13:52:48;2.00;;;1.50;;
66741;SDS011;53654;54.152;19.432;2023-08-07T13:55:35;1.90;;;1.50;;
66741;SDS011;53654;54.152;19.432;2023-08-07T13:58:03;2.30;;;1.40;;
66741;SDS011;53654;54.152;19.432;2023-08-07T14:00:31;2.20;;;1.50;;
66741;SDS011;53654;54.152;19.432;2023-08-07T14:03:02;1.80;;;1.70;;
66741;SDS011;53654;54.152;19.432;2023-08-07T14:05:31;2.20;;;1.50;;
66741;SDS011;53654;54.152;19.432;2023-08-07T14:07:59;2.70;;;1.60;;
66741;SDS011;53654;54.152;19.432;2023-08-07T14:10:28;1.80;;;1.70;;
66741;SDS011;53654;54.152;19.432;2023-08-07T14:12:56;3.00;;;2.60;;
66741;SDS011;53654;54.152;19.432;2023-08-07T14:15:24;1.80;;;1.50;;
66741;SDS011;53654;54.152;19.432;2023-08-07T14:17:52;1.70;;;1.50;;
66741;SDS011;53654;54.152;19.432;2023-08-07T14:20:21;2.00;;;1.40;;
66741;SDS011;53654;54.152;19.432;2023-08-07T14:22:50;1.40;;;1.30;;
66741;SDS011;53654;54.152;19.432;2023-08-07T14:25:18;2.60;;;1.70;;
66741;SDS011;53654;54.152;19.432;2023-08-07T14:27:49;1.60;;;1.50;;
66741;SDS011;53654;54.152;19.432;2023-08-07T14:30:17;1.60;;;1.20;;
66741;SDS011;53654;54.152;19.432;2023-08-07T14:32:45;2.20;;;1.40;;
66741;SDS011;53654;54.152;19.432;2023-08-07T14:35:15;2.50;;;1.60;;
66741;SDS011;53654;54.152;19.432;2023-08-07T14:37:43;2.70;;;1.60;;
66741;SDS011;53654;54.152;19.432;2023-08-07T14:40:14;1.50;;;1.30;;
66741;SDS011;53654;54.152;19.432;2023-08-07T14:42:42;2.00;;;1.50;;
66741;SDS011;53654;54.152;19.432;2023-08-07T14:45:11;2.80;;;1.80;;
66741;SDS011;53654;54.152;19.432;2023-08-07T14:47:42;1.70;;;1.60;;
66741;SDS011;53654;54.152;19.432;2023-08-07T14:50:11;1.30;;;1.20;;
66741;SDS011;53654;54.152;19.432;2023-08-07T14:52:39;1.40;;;1.30;;
66741;SDS011;53654;54.152;19.432;2023-08-07T14:55:08;1.50;;;1.30;;